• Join FlightAware (Why Join?)
  • Login
  • US Flag 
06:45PM EDT


 

Airport Tracker/Info


-or-


 

Live Flight TrackerFlight Track Log ✈ DAL268 ✈ 18-Apr-2013 ✈ KATL - KJFK

Flight Track Log - Related Links

Times and Time Zones

All times are in EDT time to prevent confusion due to time zone crossing. See the DAL268 flight status page for this flight to view local times or setup timezone preferences in your user account.

Time Position Orientation Groundspeed Altitude Reporting Facility
EDT Latitude Longitude Course Direction KTS MPH feet Rate Location/Type
06:30PM 33.6333 -84.3667 64° Northeast 204 235 2,500  Level Atlanta TRACON
06:31PM 33.6333 -84.3000 90° East 261 300 4,200 2,280 Climbing Atlanta TRACON
06:32PM 33.7138 -84.0161 101° East  Level FlightAware Approximate
06:32PM 33.6333 -84.2000 90° East 282 325 6,900  Level Atlanta TRACON
06:33PM 33.6913 -83.8807 101° East  Level FlightAware Approximate
06:33PM 33.6356 -84.0514 89° East 315 362 10,000  Level Atlanta Center
06:34PM 33.6687 -83.7454 101° East  Level FlightAware Approximate
06:34PM 33.6439 -83.9292 85° East 342 394 11,500  Level Atlanta Center
06:35PM 33.6587 -83.6121 64° Northeast  Level FlightAware Approximate
06:35PM 33.6519 -83.7967 86° East 381 438 13,900  Level Atlanta Center
06:36PM 33.6600 -83.6594 86° East 404 465 16,000 2,100 Climbing Atlanta Center
06:37PM 33.7056 -83.5294 67° East 410 472 18,100 1,800 Climbing Atlanta Center
06:38PM 33.7569 -83.3967 65° Northeast 423 487 19,700 1,740 Climbing Atlanta Center
06:39PM 33.8128 -83.2611 64° Northeast 442 509 21,600 1,500 Climbing Atlanta Center
06:40PM 33.8619 -83.1383 64° Northeast 447 514 22,700 1,200 Climbing Atlanta Center
06:41PM 33.9192 -82.9950 64° Northeast 461 531 24,000 1,200 Climbing Atlanta Center
06:42PM 33.9806 -82.8464 63° Northeast 474 545 25,200 1,260 Climbing Atlanta Center
06:43PM 34.0372 -82.6950 66° East 487 560 26,600 1,440 Climbing Atlanta Center
06:44PM 34.1003 -82.5486 62° Northeast 487 560 28,100 1,380 Climbing Atlanta Center
06:45PM 34.1569 -82.3994 65° Northeast 487 560 29,400 1,080 Climbing Atlanta Center
06:46PM 34.2153 -82.2503 65° Northeast 487 560 30,300 900 Climbing Atlanta Center
06:47PM 34.2756 -82.1006 64° Northeast 487 560 31,200 780 Climbing Atlanta Center
06:48PM 34.3444 -81.9658 58° Northeast 481 554 31,900 660 Climbing Atlanta Center
06:49PM 34.4150 -81.8256 59° Northeast 481 554 32,600 540 Climbing Atlanta Center
06:50PM 34.4814 -81.6878 60° Northeast 481 554 33,000 180 Climbing Atlanta Center
06:51PM 34.5517 -81.5544 57° Northeast 476 548 33,000  Level Atlanta Center
06:52PM 34.6278 -81.3983 59° Northeast 476 548 33,000  Level Atlanta Center
06:53PM 34.6936 -81.2597 60° Northeast 470 541 33,000  Level Atlanta Center
06:54PM 34.7633 -81.1183 59° Northeast 481 554 33,000  Level Atlanta Center
06:55PM 34.8328 -80.9742 60° Northeast 481 554 33,000  Level Atlanta Center
06:57PM 34.9750 -80.6842 59° Northeast 465 535 33,000  Level Washington Center
06:58PM 35.0414 -80.5439 60° Northeast 471 542 33,000  Level Washington Center
06:59PM 35.1008 -80.4206 59° Northeast 465 535 33,000  Level Washington Center
07:00PM 35.1689 -80.2825 59° Northeast 471 542 33,000  Level Washington Center
07:01PM 35.2347 -80.1439 60° Northeast 463 533 33,000  Level Washington Center
07:02PM 35.2983 -80.0075 60° Northeast 463 533 33,000  Level Washington Center
07:03PM 35.3456 -79.8547 69° East 463 533 33,000  Level Washington Center
07:04PM 35.3928 -79.7019 69° East 468 539 33,000  Level Washington Center
07:05PM 35.4394 -79.5511 69° East 473 544 33,000  Level Washington Center
07:06PM 35.4908 -79.3828 69° East 473 544 33,000  Level Washington Center
07:07PM 35.5375 -79.2294 69° East 473 544 33,000  Level Washington Center
07:08PM 35.5744 -79.1058 70° East 478 550 33,000  Level Washington Center
07:09PM 35.6231 -78.9419 70° East 478 550 33,000  Level Washington Center
07:10PM 35.6736 -78.7728 70° East 478 550 33,000  Level Washington Center
07:11PM 35.7214 -78.6161 69° East 478 550 33,000  Level Washington Center
07:12PM 35.7669 -78.4592 70° East 483 556 33,000  Level Washington Center
07:13PM 35.8103 -78.3044 71° East 477 549 33,000  Level Washington Center
07:14PM 35.8556 -78.1472 70° East 477 549 33,000  Level Washington Center
07:15PM 35.9006 -77.9919 70° East 477 549 33,000  Level Washington Center
07:16PM 35.9431 -77.8344 72° East 477 549 33,000  Level Washington Center
07:17PM 35.9939 -77.6842 67° East 477 549 33,000  Level Washington Center
07:18PM 36.0733 -77.5553 53° Northeast 470 541 33,000  Level Washington Center
07:19PM 36.1567 -77.4211 52° Northeast 475 547 33,000  Level Washington Center
07:20PM 36.2419 -77.3019 48° Northeast 475 547 33,000  Level Washington Center
07:21PM 36.3497 -77.2011 37° Northeast 470 541 33,000  Level Washington Center
07:22PM 36.4556 -77.0950 39° Northeast 481 554 33,000  Level Washington Center
07:23PM 36.5611 -76.9883 39° Northeast 481 554 33,000  Level Washington Center
07:24PM 36.6664 -76.8842 38° Northeast 481 554 33,000  Level Washington Center
07:25PM 36.7719 -76.7742 40° Northeast 481 554 33,000  Level Washington Center
07:26PM 36.8772 -76.6719 38° Northeast 481 554 33,000  Level Washington Center
07:27PM 36.9825 -76.5642 39° Northeast 481 554 33,000  Level Washington Center
07:28PM 37.0875 -76.4564 39° Northeast 481 554 33,000  Level Washington Center
07:29PM 37.1842 -76.3583 39° Northeast 481 554 33,000  Level Washington Center
07:30PM 37.2892 -76.2522 39° Northeast 481 554 33,000  Level Washington Center
07:31PM 37.4086 -76.1383 37° Northeast 481 554 33,000  Level Washington Center
07:32PM 37.5153 -76.0317 38° Northeast 487 560 33,000  Level Washington Center
07:33PM 37.6181 -75.9247 39° Northeast 487 560 33,000  Level Washington Center
07:34PM 37.7244 -75.8150 39° Northeast 487 560 33,000  Level Washington Center
07:35PM 37.8269 -75.7128 38° Northeast 487 560 33,000 -60 Level Washington Center
07:36PM 37.9311 -75.5997 41° Northeast 487 560 32,900  Descending Washington Center
07:37PM 38.0375 -75.4942 38° Northeast 487 560 33,000  Climbing Washington Center
07:38PM 38.1542 -75.4094 30° Northeast 487 560 33,000  Level Washington Center
07:39PM 38.2750 -75.3378 25° Northeast 480 552 33,000  Level Washington Center
07:40PM 38.3792 -75.2658 27° Northeast 475 547 33,000  Level Washington Center
07:41PM 38.3982 -75.2356 27° Northeast  Level FlightAware Approximate
07:41PM 38.4978 -75.1858 28° Northeast 475 547 33,000  Level Washington Center
07:42PM 38.6164 -75.1133 26° Northeast 470 541 33,000  Level Washington Center
07:43PM 38.7369 -75.0356 27° Northeast 470 541 33,000  Level Washington Center
07:44PM 38.8531 -74.9600 27° Northeast 470 541 33,000 -720 Level Washington Center
07:45PM 38.9694 -74.8842 27° Northeast 470 541 31,600 -1,620 Descending Washington Center
07:46PM 39.0878 -74.8028 28° Northeast 470 541 29,800 -2,160 Descending Washington Center
07:47PM 39.1914 -74.6972 38° Northeast 475 547 27,300 -2,940 Descending Washington Center
07:48PM 39.2967 -74.5833 40° Northeast 483 556 24,000 -2,880 Descending Washington Center
07:50PM 39.4506 -74.4167 40° Northeast 456 525 19,900 -2,340 Descending New York Center
07:51PM 39.5564 -74.3008 40° Northeast 438 504 18,000 -960 Descending New York Center
07:52PM 39.6469 -74.2003 41° Northeast 428 493 18,000 -360 Level New York Center
07:53PM 39.7200 -74.1200 40° Northeast 387 445 17,300 -1,200 Descending New York Center
07:54PM 39.7956 -74.0347 41° Northeast 362 417 15,700 -2,100 Descending New York Center
07:55PM 39.8894 -73.9525 34° Northeast 363 418 13,200 -2,160 Descending New York Center
07:56PM 39.9764 -73.8914 28° Northeast 356 410 11,400 -1,140 Descending New York Center
07:57PM 40.0467 -73.8403 29° Northeast 328 377 11,000 -300 Descending New York Center
07:58PM 40.1086 -73.7806 36° Northeast 291 335 10,800 -840 Descending New York Center
07:59PM 40.1667 -73.7333 32° Northeast 273 314 9,600 -1,620 Descending New York TRACON
08:00PM 40.2167 -73.7667 333° Northwest 242 278 8,100 -1,500 Descending New York TRACON
08:01PM 40.2667 -73.8333 315° West 238 274 6,600 -1,500 Descending New York TRACON
08:02PM 40.3167 -73.8833 323° Northwest 235 270 5,100 -1,440 Descending New York TRACON
08:02PM 40.3242 -73.9044 295° West 232 267 4,800 -1,200 Descending New York Center
08:03PM 40.3728 -73.9611 318° Northwest 238 274 3,600 -1,260 Descending New York Center
08:04PM 40.4167 -73.9667 354° North 217 250 2,600 -600 Descending New York TRACON
08:05PM 40.4833 -73.9833 349° North 213 245 2,600 -60 Level New York TRACON
08:06PM 40.5333 -73.9667 14° North 211 243 2,500 -600 Descending New York TRACON
08:07PM 40.5833 -73.9167 37° Northeast 198 228 1,500 -720 Descending New York TRACON
08:08PM 40.6167 -73.8833 37° Northeast 167 192 1,100 -420 Descending New York TRACON